createdAt,value
2017-11-11T00:01:48.612Z,6.20
2017-11-11T00:04:14.594Z,6.10
2017-11-11T00:06:40.596Z,6.10
2017-11-11T00:09:06.559Z,6.10
2017-11-11T00:11:32.543Z,6.20
2017-11-11T00:13:58.550Z,6.10
2017-11-11T00:16:25.252Z,6.00
2017-11-11T00:18:51.242Z,6.10
2017-11-11T00:21:17.994Z,6.10
2017-11-11T00:23:44.706Z,6.00
2017-11-11T00:26:10.668Z,6.00
2017-11-11T00:28:36.649Z,5.90
2017-11-11T00:31:02.611Z,5.90
2017-11-11T00:33:28.661Z,5.70
2017-11-11T00:35:54.619Z,5.70
2017-11-11T00:38:20.611Z,5.70
2017-11-11T00:40:46.567Z,5.70
2017-11-11T00:43:12.551Z,5.70
2017-11-11T00:45:38.552Z,5.60
2017-11-11T00:48:04.564Z,5.70
2017-11-11T00:50:30.542Z,5.60
2017-11-11T00:52:57.300Z,5.60
2017-11-11T00:55:23.309Z,5.60
2017-11-11T00:57:49.270Z,5.60
2017-11-11T01:00:15.215Z,5.70
2017-11-11T01:02:41.947Z,5.80
2017-11-11T01:05:07.907Z,5.70
2017-11-11T01:07:34.643Z,5.70
2017-11-11T01:10:01.371Z,5.70
2017-11-11T01:12:27.378Z,5.70
2017-11-11T01:14:53.367Z,5.70
2017-11-11T01:17:19.366Z,5.60
2017-11-11T01:19:45.318Z,5.60
2017-11-11T01:22:11.287Z,5.50
2017-11-11T01:24:37.287Z,5.60
2017-11-11T01:27:03.301Z,5.60
2017-11-11T01:29:29.382Z,5.60
2017-11-11T01:31:56.115Z,5.60
2017-11-11T01:34:22.073Z,5.60
2017-11-11T01:36:48.805Z,5.50
2017-11-11T01:39:14.794Z,5.50
2017-11-11T01:41:40.747Z,5.50
2017-11-11T01:44:06.698Z,5.50
2017-11-11T01:46:32.707Z,5.50
2017-11-11T01:48:58.699Z,5.40
2017-11-11T01:51:25.442Z,5.30
2017-11-11T01:53:51.427Z,5.30
2017-11-11T01:56:17.371Z,5.40
2017-11-11T01:58:43.352Z,5.40
2017-11-11T02:01:09.346Z,5.40
2017-11-11T02:03:35.330Z,5.50
2017-11-11T02:06:01.311Z,5.40
2017-11-11T02:08:27.347Z,5.40
2017-11-11T02:10:53.301Z,5.50
2017-11-11T02:13:19.307Z,5.50
2017-11-11T02:15:45.267Z,5.50
2017-11-11T02:18:11.216Z,5.50
2017-11-11T02:20:37.200Z,5.40
2017-11-11T02:23:03.944Z,5.50
2017-11-11T02:25:29.911Z,5.50
2017-11-11T02:27:55.875Z,5.50
2017-11-11T02:30:21.871Z,5.40
2017-11-11T02:32:48.622Z,5.40
2017-11-11T02:35:15.318Z,5.40
2017-11-11T02:37:41.275Z,5.40
2017-11-11T02:40:07.262Z,5.40
2017-11-11T02:42:33.278Z,5.40
2017-11-11T02:45:00.017Z,5.40
2017-11-11T02:47:26.710Z,5.40
2017-11-11T02:49:52.720Z,5.40
2017-11-11T02:52:18.663Z,5.50
2017-11-11T02:54:44.604Z,5.40
2017-11-11T02:57:10.619Z,5.30
2017-11-11T02:59:37.411Z,5.30
2017-11-11T03:02:03.386Z,5.30
2017-11-11T03:04:29.409Z,5.40
2017-11-11T03:06:55.352Z,5.40
2017-11-11T03:09:21.298Z,5.40
2017-11-11T03:11:47.295Z,5.40
2017-11-11T03:14:13.230Z,5.40
2017-11-11T03:16:39.165Z,5.40
2017-11-11T03:19:05.134Z,5.40
2017-11-11T03:21:31.150Z,5.40
2017-11-11T03:23:57.117Z,5.40
2017-11-11T03:26:23.858Z,5.20
2017-11-11T03:28:49.806Z,5.30
2017-11-11T03:31:15.738Z,5.30
2017-11-11T03:33:41.725Z,5.20
2017-11-11T03:36:07.682Z,5.30
2017-11-11T03:38:33.647Z,5.30
2017-11-11T03:40:59.667Z,5.20
2017-11-11T03:43:25.622Z,5.30
2017-11-11T03:45:51.588Z,5.30
2017-11-11T03:48:18.300Z,5.40
2017-11-11T03:50:44.247Z,5.40
2017-11-11T03:53:10.219Z,5.30
2017-11-11T03:55:36.216Z,5.30
2017-11-11T03:58:02.233Z,5.20
2017-11-11T04:00:28.193Z,5.30
2017-11-11T04:02:54.142Z,5.30
2017-11-11T04:05:20.875Z,5.30
2017-11-11T04:07:46.815Z,5.30
2017-11-11T04:10:12.750Z,5.30
2017-11-11T04:12:38.742Z,5.30
2017-11-11T04:15:04.725Z,5.30
2017-11-11T04:17:30.689Z,5.30
2017-11-11T04:19:56.651Z,5.40
2017-11-11T04:22:22.631Z,5.40
2017-11-11T04:24:48.587Z,5.40
2017-11-11T04:27:15.306Z,5.40
2017-11-11T04:29:41.254Z,5.40
2017-11-11T04:32:07.194Z,5.40
2017-11-11T04:34:33.218Z,5.50
2017-11-11T04:36:59.225Z,5.50
2017-11-11T04:39:25.207Z,5.50
2017-11-11T04:41:51.898Z,5.50
2017-11-11T04:44:17.882Z,5.50
2017-11-11T04:46:43.825Z,5.50
2017-11-11T04:49:09.771Z,5.50
2017-11-11T04:51:36.497Z,5.50
2017-11-11T04:54:02.461Z,5.50
2017-11-11T04:56:29.209Z,5.60
2017-11-11T04:58:55.177Z,5.60
2017-11-11T05:01:21.165Z,5.70
2017-11-11T05:03:47.097Z,5.70
2017-11-11T05:06:13.084Z,5.70
2017-11-11T05:08:39.094Z,5.70
2017-11-11T05:11:05.787Z,5.70
2017-11-11T05:13:31.793Z,5.70
2017-11-11T05:15:58.571Z,5.60
2017-11-11T05:18:24.583Z,5.60
2017-11-11T05:20:50.617Z,5.70
2017-11-11T05:23:16.607Z,5.50
2017-11-11T05:25:42.555Z,5.50
2017-11-11T05:28:08.498Z,5.50
2017-11-11T05:30:34.526Z,5.50
2017-11-11T05:33:00.521Z,5.40
2017-11-11T05:35:26.457Z,5.40
2017-11-11T05:37:52.451Z,5.30
2017-11-11T05:40:19.142Z,5.30
2017-11-11T05:42:45.103Z,5.30
2017-11-11T05:45:11.127Z,5.30
2017-11-11T05:47:37.126Z,5.30
2017-11-11T05:50:03.838Z,5.20
2017-11-11T05:52:29.825Z,5.30
2017-11-11T05:54:55.807Z,5.20
2017-11-11T05:57:21.806Z,5.20
2017-11-11T05:59:47.763Z,5.20
2017-11-11T06:02:13.761Z,5.20
2017-11-11T06:04:40.449Z,5.20
2017-11-11T06:07:06.468Z,5.20
2017-11-11T06:09:32.483Z,5.20
2017-11-11T06:11:59.230Z,5.30
2017-11-11T06:14:33.209Z,5.30
2017-11-11T06:16:59.173Z,5.30
2017-11-11T06:19:25.171Z,5.30
2017-11-11T06:21:51.179Z,5.30
2017-11-11T06:24:17.121Z,5.40
2017-11-11T06:26:43.079Z,5.30
2017-11-11T06:29:09.071Z,5.30
2017-11-11T06:31:35.785Z,5.20
2017-11-11T06:34:01.803Z,5.20
2017-11-11T06:36:27.819Z,5.30
2017-11-11T06:38:53.783Z,5.30
2017-11-11T06:41:19.790Z,5.40
2017-11-11T06:43:52.787Z,5.30
2017-11-11T06:46:18.783Z,5.30
2017-11-11T06:48:44.739Z,5.30
2017-11-11T06:51:19.274Z,5.30
2017-11-11T06:53:45.205Z,5.30
2017-11-11T06:56:11.158Z,5.30
2017-11-11T06:58:37.138Z,5.40
2017-11-11T07:01:03.143Z,5.40
2017-11-11T07:03:29.842Z,5.50
2017-11-11T07:05:55.834Z,5.40
2017-11-11T07:08:22.573Z,5.60
2017-11-11T07:10:48.514Z,5.50
2017-11-11T07:13:15.198Z,5.70
2017-11-11T07:15:41.165Z,5.70
2017-11-11T07:18:07.123Z,5.70
2017-11-11T07:20:33.122Z,5.80
2017-11-11T07:22:59.067Z,5.80
2017-11-11T07:25:25.055Z,5.90
2017-11-11T07:27:51.763Z,6.10
2017-11-11T07:30:17.744Z,6.10
2017-11-11T07:32:44.427Z,6.20
2017-11-11T07:35:10.370Z,6.20
2017-11-11T07:37:36.376Z,6.20
2017-11-11T07:40:02.347Z,6.10
2017-11-11T07:42:28.291Z,6.20
2017-11-11T07:44:54.281Z,6.20
2017-11-11T07:47:20.227Z,6.20
2017-11-11T07:49:46.190Z,6.30
2017-11-11T07:52:12.184Z,6.30
2017-11-11T07:54:38.204Z,6.40
2017-11-11T07:57:04.938Z,6.50
2017-11-11T07:59:30.883Z,6.40
2017-11-11T08:01:56.870Z,6.60
2017-11-11T08:04:22.867Z,6.50
2017-11-11T08:06:49.629Z,6.60
2017-11-11T08:09:16.359Z,6.60
2017-11-11T08:11:42.305Z,6.60
2017-11-11T08:14:08.305Z,6.60
2017-11-11T08:16:34.259Z,6.60
2017-11-11T08:19:00.216Z,6.70
2017-11-11T08:21:26.953Z,6.70
2017-11-11T08:23:53.629Z,6.80
2017-11-11T08:26:20.388Z,6.80
2017-11-11T08:28:47.081Z,6.80
2017-11-11T08:31:13.031Z,6.80
2017-11-11T08:33:39.036Z,6.90
2017-11-11T08:36:05.042Z,7.00
2017-11-11T08:38:31.726Z,7.20
2017-11-11T08:40:57.713Z,7.20
2017-11-11T08:43:23.688Z,7.20
2017-11-11T08:45:49.653Z,7.20
2017-11-11T08:48:15.731Z,7.20
2017-11-11T08:50:41.766Z,7.10
2017-11-11T08:53:07.763Z,7.10
2017-11-11T08:55:33.746Z,7.20
2017-11-11T08:58:00.502Z,7.40
2017-11-11T09:00:27.230Z,7.60
2017-11-11T09:02:53.194Z,7.50
2017-11-11T09:05:19.987Z,7.50
2017-11-11T09:07:45.941Z,7.50
2017-11-11T09:10:11.964Z,7.50
2017-11-11T09:12:37.928Z,7.40
2017-11-11T09:15:03.915Z,7.40
2017-11-11T09:17:29.859Z,7.30
2017-11-11T09:19:55.846Z,7.30
2017-11-11T09:22:21.827Z,7.40
2017-11-11T09:24:47.797Z,7.60
2017-11-11T09:27:13.773Z,7.60
2017-11-11T09:29:40.479Z,7.60
2017-11-11T09:32:06.534Z,7.60
2017-11-11T09:34:32.490Z,7.70
2017-11-11T09:36:59.229Z,7.80
2017-11-11T09:39:25.157Z,7.80
2017-11-11T09:41:51.103Z,7.80
2017-11-11T09:44:17.091Z,7.60
2017-11-11T09:46:43.102Z,7.60
2017-11-11T09:49:09.879Z,7.70
2017-11-11T09:51:35.829Z,7.70
2017-11-11T09:54:01.817Z,7.70
2017-11-11T09:56:28.555Z,7.90
2017-11-11T09:58:54.506Z,7.90
2017-11-11T10:01:21.230Z,8.00
2017-11-11T10:03:47.175Z,8.00
2017-11-11T10:06:13.154Z,8.10
2017-11-11T10:08:39.164Z,8.20
2017-11-11T10:11:05.886Z,7.90
2017-11-11T10:13:31.868Z,7.90
2017-11-11T10:15:59.349Z,8.10
2017-11-11T10:18:25.371Z,8.10
2017-11-11T10:20:51.317Z,8.40
2017-11-11T10:23:17.259Z,8.40
2017-11-11T10:25:43.251Z,8.40
2017-11-11T10:28:09.210Z,8.40
2017-11-11T10:30:35.947Z,8.50
2017-11-11T10:33:01.897Z,8.50
2017-11-11T10:35:28.608Z,8.50
2017-11-11T10:37:54.551Z,8.50
2017-11-11T10:40:20.525Z,8.70
2017-11-11T10:42:47.215Z,8.40
2017-11-11T10:45:13.185Z,8.40
2017-11-11T10:47:40.649Z,7.80
2017-11-11T10:50:06.643Z,7.80
2017-11-11T10:52:32.573Z,7.50
2017-11-11T10:54:58.570Z,7.40
2017-11-11T10:57:24.517Z,7.30
2017-11-11T10:59:51.203Z,7.50
2017-11-11T11:02:17.196Z,7.50
2017-11-11T11:04:43.877Z,7.60
2017-11-11T11:07:09.857Z,7.50
2017-11-11T11:09:46.012Z,7.60
2017-11-11T11:12:12.013Z,7.50
2017-11-11T11:14:38.887Z,7.70
2017-11-11T11:17:05.600Z,7.60
2017-11-11T11:19:31.543Z,7.60
2017-11-11T11:21:57.516Z,7.50
2017-11-11T11:24:23.454Z,7.50
2017-11-11T11:26:49.408Z,7.50
2017-11-11T11:29:15.394Z,7.60
2017-11-11T11:31:42.093Z,7.70
2017-11-11T11:34:08.051Z,7.60
2017-11-11T11:36:34.042Z,7.60
2017-11-11T11:38:59.986Z,7.50
2017-11-11T11:41:25.926Z,7.50
2017-11-11T11:43:51.959Z,7.50
2017-11-11T11:46:17.919Z,7.60
2017-11-11T11:48:43.867Z,7.60
2017-11-11T11:51:09.899Z,7.60
2017-11-11T11:53:36.665Z,7.70
2017-11-11T11:56:02.619Z,7.70
2017-11-11T11:58:29.337Z,7.90
2017-11-11T12:00:55.317Z,7.90
2017-11-11T12:03:22.010Z,7.90
2017-11-11T12:05:48.014Z,7.90
2017-11-11T12:08:13.955Z,8.00
2017-11-11T12:10:39.903Z,8.10
2017-11-11T12:13:05.890Z,8.30
2017-11-11T12:15:31.838Z,8.20
2017-11-11T12:17:58.575Z,8.20
2017-11-11T12:20:24.517Z,8.20
2017-11-11T12:22:50.488Z,8.30
2017-11-11T12:25:16.453Z,8.30
2017-11-11T12:27:42.455Z,8.30
2017-11-11T12:30:08.414Z,8.30
2017-11-11T12:32:34.397Z,8.30
2017-11-11T12:35:01.119Z,8.10
2017-11-11T12:37:27.072Z,8.10
2017-11-11T12:39:53.049Z,8.10
2017-11-11T12:42:19.054Z,8.30
2017-11-11T12:44:44.989Z,8.30
2017-11-11T12:47:10.969Z,8.20
2017-11-11T12:49:36.912Z,8.20
2017-11-11T12:52:02.929Z,8.20
2017-11-11T12:54:28.908Z,8.30
2017-11-11T12:56:54.915Z,8.40
2017-11-11T12:59:20.887Z,8.70
2017-11-11T13:01:46.873Z,8.80
2017-11-11T13:04:12.890Z,8.90
2017-11-11T13:06:39.597Z,8.60
2017-11-11T13:09:05.605Z,8.60
2017-11-11T13:11:31.579Z,8.70
2017-11-11T13:13:57.596Z,9.10
2017-11-11T13:16:23.543Z,9.30
2017-11-11T13:18:49.500Z,9.50
2017-11-11T13:21:15.478Z,9.50
2017-11-11T13:23:41.427Z,9.50
2017-11-11T13:26:07.455Z,9.20
2017-11-11T13:28:33.393Z,9.20
2017-11-11T13:30:59.338Z,9.20
2017-11-11T13:33:25.321Z,9.30
2017-11-11T13:35:51.278Z,9.40
2017-11-11T13:38:18.003Z,9.70
2017-11-11T13:40:43.991Z,9.70
2017-11-11T13:43:10.062Z,9.50
2017-11-11T13:45:36.045Z,9.20
2017-11-11T13:48:02.726Z,8.90
2017-11-11T13:50:28.718Z,8.90
2017-11-11T13:52:54.657Z,8.80
2017-11-11T13:55:21.389Z,8.60
2017-11-11T13:57:47.325Z,8.60
2017-11-11T14:00:13.315Z,8.60
2017-11-11T14:02:39.269Z,8.60
2017-11-11T14:05:05.205Z,8.50
2017-11-11T14:07:31.189Z,8.40
2017-11-11T14:09:57.902Z,8.50
2017-11-11T14:12:23.853Z,8.50
2017-11-11T14:14:50.581Z,8.50
2017-11-11T14:17:16.529Z,8.50
2017-11-11T14:19:42.519Z,8.30
2017-11-11T14:22:08.481Z,8.10
2017-11-11T14:24:34.446Z,8.10
2017-11-11T14:27:00.521Z,8.20
2017-11-11T14:29:27.220Z,8.20
2017-11-11T14:31:53.170Z,8.20
2017-11-11T14:34:19.272Z,8.10
2017-11-11T14:36:45.339Z,8.00
2017-11-11T14:39:11.323Z,8.00
2017-11-11T14:41:38.053Z,8.10
2017-11-11T14:44:04.022Z,8.10
2017-11-11T14:46:30.014Z,8.00
2017-11-11T14:48:56.017Z,8.10
2017-11-11T14:51:21.945Z,8.10
2017-11-11T14:53:47.942Z,7.90
2017-11-11T14:56:14.675Z,7.90
2017-11-11T14:58:40.652Z,7.90
2017-11-11T15:01:06.652Z,8.00
2017-11-11T15:03:32.742Z,7.80
2017-11-11T15:05:58.747Z,7.90
2017-11-11T15:08:25.498Z,7.90
2017-11-11T15:10:52.250Z,7.80
2017-11-11T15:13:18.941Z,7.80
2017-11-11T15:15:44.940Z,7.80
2017-11-11T15:18:11.645Z,7.70
2017-11-11T15:20:37.585Z,7.60
2017-11-11T15:23:03.557Z,7.70
2017-11-11T15:25:29.507Z,7.60
2017-11-11T15:27:56.223Z,7.80
2017-11-11T15:30:22.240Z,7.80
2017-11-11T15:32:48.251Z,7.70
2017-11-11T15:35:14.197Z,7.60
2017-11-11T15:37:40.208Z,7.70
2017-11-11T15:40:06.180Z,7.50
2017-11-11T15:42:32.169Z,7.50
2017-11-11T15:44:58.854Z,7.60
2017-11-11T15:47:24.805Z,7.50
2017-11-11T15:49:50.790Z,7.50
2017-11-11T15:52:17.490Z,7.40
2017-11-11T15:54:43.573Z,7.40
2017-11-11T15:57:09.551Z,7.50
2017-11-11T15:59:35.555Z,7.60
2017-11-11T16:02:02.245Z,7.50
2017-11-11T16:04:28.246Z,7.40
2017-11-11T16:06:54.977Z,7.50
2017-11-11T16:09:20.931Z,7.40
2017-11-11T16:11:47.704Z,7.30
2017-11-11T16:14:14.377Z,7.30
2017-11-11T16:16:40.406Z,7.30
2017-11-11T16:19:06.390Z,7.30
2017-11-11T16:21:32.410Z,7.50
2017-11-11T16:23:58.373Z,7.50
2017-11-11T16:26:24.321Z,7.40
2017-11-11T16:28:51.046Z,7.50
2017-11-11T16:31:16.992Z,7.50
2017-11-11T16:33:42.979Z,7.60
2017-11-11T16:36:09.734Z,7.30
2017-11-11T16:38:35.719Z,7.30
2017-11-11T16:41:01.657Z,7.40
2017-11-11T16:43:27.647Z,7.20
2017-11-11T16:45:53.598Z,7.20
2017-11-11T16:48:19.539Z,7.20
2017-11-11T16:50:45.571Z,7.20
2017-11-11T16:53:11.585Z,7.10
2017-11-11T16:55:37.522Z,7.10
2017-11-11T16:58:03.513Z,7.00
2017-11-11T17:00:30.235Z,7.10
2017-11-11T17:02:56.188Z,7.10
2017-11-11T17:05:22.183Z,7.20
2017-11-11T17:07:48.129Z,7.10
2017-11-11T17:10:14.136Z,7.10
2017-11-11T17:12:40.107Z,7.10
2017-11-11T17:15:06.055Z,7.20
2017-11-11T17:17:32.089Z,7.20
2017-11-11T17:19:58.053Z,7.10
2017-11-11T17:22:24.004Z,7.20
2017-11-11T17:24:50.730Z,7.20
2017-11-11T17:27:16.806Z,7.20
2017-11-11T17:29:42.819Z,7.20
2017-11-11T17:32:09.515Z,7.00
2017-11-11T17:34:35.509Z,7.00
2017-11-11T17:37:02.205Z,7.10
2017-11-11T17:39:28.243Z,7.10
2017-11-11T17:41:54.280Z,7.00
2017-11-11T17:44:20.213Z,6.90
2017-11-11T17:46:46.190Z,6.90
2017-11-11T17:49:12.142Z,7.00
2017-11-11T17:51:38.143Z,6.90
2017-11-11T17:54:04.122Z,6.90
2017-11-11T17:56:30.086Z,7.10
2017-11-11T17:58:56.090Z,7.00
2017-11-11T18:01:22.081Z,7.10
2017-11-11T18:03:48.079Z,7.00
2017-11-11T18:06:14.074Z,7.10
2017-11-11T18:08:40.047Z,7.10
2017-11-11T18:11:06.087Z,6.90
2017-11-11T18:13:32.125Z,7.00
2017-11-11T18:15:58.083Z,7.10
2017-11-11T18:18:24.097Z,6.90
2017-11-11T18:20:50.082Z,6.90
2017-11-11T18:23:16.056Z,6.90
2017-11-11T18:25:42.776Z,6.70
2017-11-11T18:28:08.756Z,6.70
2017-11-11T18:30:34.754Z,6.80
2017-11-11T18:33:00.787Z,6.80
2017-11-11T18:35:26.736Z,6.60
2017-11-11T18:37:52.733Z,6.70
2017-11-11T18:40:18.678Z,6.60
2017-11-11T18:42:44.660Z,6.60
2017-11-11T18:45:11.391Z,6.60
2017-11-11T18:47:37.370Z,6.60
2017-11-11T18:50:03.310Z,6.60
2017-11-11T18:52:29.304Z,6.60
2017-11-11T18:54:55.240Z,6.60
2017-11-11T18:57:21.254Z,6.70
2017-11-11T18:59:47.213Z,6.70
2017-11-11T19:02:13.163Z,6.70
2017-11-11T19:04:39.905Z,6.90
2017-11-11T19:07:05.845Z,6.80
2017-11-11T19:09:32.567Z,6.70
2017-11-11T19:11:58.542Z,6.70
2017-11-11T19:14:25.250Z,6.90
2017-11-11T19:16:51.220Z,6.90
2017-11-11T19:19:17.198Z,6.90
2017-11-11T19:21:43.191Z,6.90
2017-11-11T19:24:09.889Z,6.90
2017-11-11T19:26:35.859Z,6.80
2017-11-11T19:29:01.830Z,6.80
2017-11-11T19:31:28.573Z,6.90
2017-11-11T19:33:55.269Z,6.70
2017-11-11T19:36:21.320Z,6.70
2017-11-11T19:38:47.265Z,6.80
2017-11-11T19:41:13.252Z,6.90
2017-11-11T19:43:39.287Z,6.80
2017-11-11T19:46:05.233Z,6.80
2017-11-11T19:48:31.222Z,6.80
2017-11-11T19:50:57.166Z,6.80
2017-11-11T19:53:23.128Z,6.70
2017-11-11T19:55:49.851Z,6.70
2017-11-11T19:58:15.839Z,6.70
2017-11-11T20:00:41.803Z,6.70
2017-11-11T20:03:07.822Z,6.80
2017-11-11T20:05:33.859Z,6.80
2017-11-11T20:07:59.854Z,6.90
2017-11-11T20:10:26.639Z,6.90
2017-11-11T20:12:52.625Z,6.80
2017-11-11T20:15:18.578Z,6.80
2017-11-11T20:17:45.275Z,6.70
2017-11-11T20:20:11.260Z,6.70
2017-11-11T20:22:37.267Z,6.80
2017-11-11T20:25:03.271Z,6.80
2017-11-11T20:27:29.214Z,6.70
2017-11-11T20:29:55.193Z,6.70
2017-11-11T20:32:21.145Z,6.80
2017-11-11T20:34:47.866Z,6.70
2017-11-11T20:37:13.822Z,6.70
2017-11-11T20:39:39.818Z,6.70
2017-11-11T20:42:05.785Z,6.70
2017-11-11T20:44:31.791Z,6.70
2017-11-11T20:46:57.744Z,6.70
2017-11-11T20:49:23.699Z,6.60
2017-11-11T20:51:49.682Z,6.60
2017-11-11T20:54:15.613Z,6.70
2017-11-11T20:56:41.623Z,6.70
2017-11-11T20:59:08.373Z,6.70
2017-11-11T21:01:35.074Z,6.60
2017-11-11T21:04:01.024Z,6.60
2017-11-11T21:06:27.019Z,6.60
2017-11-11T21:08:52.999Z,6.60
2017-11-11T21:11:19.005Z,6.50
2017-11-11T21:13:44.983Z,6.40
2017-11-11T21:16:10.990Z,6.40
2017-11-11T21:18:36.954Z,6.30
2017-11-11T21:21:02.889Z,6.20
2017-11-11T21:23:28.874Z,6.20
2017-11-11T21:25:54.825Z,6.10
2017-11-11T21:28:20.775Z,6.10
2017-11-11T21:30:46.799Z,6.10
2017-11-11T21:33:12.822Z,6.00
2017-11-11T21:35:38.855Z,6.10
2017-11-11T21:38:04.840Z,6.10
2017-11-11T21:40:30.871Z,6.00
2017-11-11T21:42:57.607Z,6.10
2017-11-11T21:45:23.570Z,6.10
2017-11-11T21:47:49.528Z,6.10
2017-11-11T21:50:16.254Z,6.10
2017-11-11T21:52:42.207Z,6.10
2017-11-11T21:55:08.228Z,6.10
2017-11-11T21:57:34.203Z,6.10
2017-11-11T22:00:00.150Z,6.10
2017-11-11T22:02:26.169Z,6.10
2017-11-11T22:04:52.903Z,6.20
2017-11-11T22:07:18.851Z,6.20
2017-11-11T22:09:45.537Z,6.20
2017-11-11T22:12:11.522Z,6.20
2017-11-11T22:14:37.506Z,6.20
2017-11-11T22:17:03.442Z,6.30
2017-11-11T22:19:29.446Z,6.30
2017-11-11T22:21:56.174Z,6.30
2017-11-11T22:24:22.117Z,6.30
2017-11-11T22:26:48.070Z,6.30
2017-11-11T22:29:14.803Z,6.20
2017-11-11T22:31:40.768Z,6.20
2017-11-11T22:34:07.499Z,6.30
2017-11-11T22:36:33.482Z,6.30
2017-11-11T22:38:59.447Z,6.30
2017-11-11T22:41:25.418Z,6.30
2017-11-11T22:43:59.202Z,6.30
2017-11-11T22:46:25.207Z,6.20
2017-11-11T22:48:51.189Z,6.30
2017-11-11T22:51:17.139Z,6.10
2017-11-11T22:53:43.135Z,6.20
2017-11-11T22:56:09.109Z,6.20
2017-11-11T22:58:35.087Z,6.20
2017-11-11T23:01:01.077Z,6.20
2017-11-11T23:03:27.038Z,6.20
2017-11-11T23:05:53.014Z,6.30
2017-11-11T23:08:19.011Z,6.30
2017-11-11T23:10:44.945Z,6.30
2017-11-11T23:13:11.642Z,6.20
2017-11-11T23:15:37.629Z,6.20
2017-11-11T23:18:03.599Z,6.10
2017-11-11T23:20:30.027Z,6.10
2017-11-11T23:22:55.974Z,6.30
2017-11-11T23:25:21.965Z,6.30
2017-11-11T23:27:47.937Z,6.20
2017-11-11T23:30:13.893Z,6.20
2017-11-11T23:32:39.945Z,6.20
2017-11-11T23:35:05.937Z,6.30
2017-11-11T23:37:31.873Z,6.20
2017-11-11T23:39:57.805Z,6.20
2017-11-11T23:42:23.831Z,6.10
2017-11-11T23:44:50.517Z,6.00
2017-11-11T23:47:16.494Z,6.00
2017-11-11T23:49:42.474Z,6.00
2017-11-11T23:52:08.483Z,6.00
2017-11-11T23:54:35.165Z,6.10
2017-11-11T23:57:01.150Z,6.10
2017-11-11T23:59:27.112Z,6.10
